createdAt,value
2022-09-21T00:00:07.325Z,78.17
2022-09-21T00:01:07.339Z,78.08
2022-09-21T00:02:07.383Z,77.98
2022-09-21T00:03:07.356Z,78.08
2022-09-21T00:04:07.472Z,77.79
2022-09-21T00:05:07.375Z,78.27
2022-09-21T00:06:07.381Z,77.79
2022-09-21T00:07:07.397Z,77.70
2022-09-21T00:08:07.402Z,77.60
2022-09-21T00:09:07.414Z,77.31
2022-09-21T00:10:07.423Z,77.60
2022-09-21T00:11:07.564Z,77.60
2022-09-21T00:12:07.446Z,77.22
2022-09-21T00:13:07.455Z,77.41
2022-09-21T00:14:07.469Z,77.31
2022-09-21T00:15:07.477Z,77.03
2022-09-21T00:16:07.726Z,77.31
2022-09-21T00:17:07.496Z,77.22
2022-09-21T00:18:07.508Z,77.51
2022-09-21T00:19:07.521Z,77.79
2022-09-21T00:20:07.531Z,77.41
2022-09-21T00:21:07.540Z,78.36
2022-09-21T00:22:07.600Z,78.45
2022-09-21T00:23:07.562Z,78.36
2022-09-21T00:24:07.569Z,78.08
2022-09-21T00:25:07.586Z,78.36
2022-09-21T00:26:07.591Z,78.17
2022-09-21T00:27:07.673Z,77.51
2022-09-21T00:28:07.615Z,77.31
2022-09-21T00:29:07.625Z,77.79
2022-09-21T00:30:07.634Z,77.12
2022-09-21T00:31:07.645Z,77.51
2022-09-21T00:32:07.706Z,78.17
2022-09-21T00:33:07.665Z,78.17
2022-09-21T00:34:07.767Z,77.51
2022-09-21T00:35:07.686Z,77.70
2022-09-21T00:36:07.695Z,78.74
2022-09-21T00:37:07.706Z,78.27
2022-09-21T00:38:07.719Z,78.93
2022-09-21T00:39:07.727Z,79.12
2022-09-21T00:40:07.829Z,79.36
2022-09-21T00:41:07.745Z,79.79
2022-09-21T00:42:07.756Z,80.13
2022-09-21T00:43:07.806Z,80.13
2022-09-21T00:44:07.880Z,80.60
2022-09-21T00:45:07.787Z,81.17
2022-09-21T00:46:07.867Z,81.26
2022-09-21T00:47:07.812Z,81.26
2022-09-21T00:48:07.821Z,80.98
2022-09-21T00:49:07.831Z,81.17
2022-09-21T00:50:07.838Z,81.17
2022-09-21T00:51:07.852Z,81.17
2022-09-21T00:52:07.877Z,81.17
2022-09-21T00:53:07.870Z,82.03
2022-09-21T00:54:07.881Z,81.74
2022-09-21T00:55:07.897Z,81.36
2022-09-21T00:56:07.901Z,80.79
2022-09-21T00:57:07.912Z,80.98
2022-09-21T00:58:07.926Z,80.60
2022-09-21T00:59:07.961Z,79.55
2022-09-21T01:00:07.945Z,79.27
2022-09-21T01:01:08.061Z,78.99
2022-09-21T01:02:08.009Z,79.17
2022-09-21T01:03:07.978Z,79.17
2022-09-21T01:04:08.058Z,80.03
2022-09-21T01:05:07.995Z,80.60
2022-09-21T01:06:08.002Z,81.84
2022-09-21T01:07:08.010Z,82.50
2022-09-21T01:08:08.024Z,82.97
2022-09-21T01:09:08.034Z,83.36
2022-09-21T01:10:08.040Z,84.59
2022-09-21T01:11:08.054Z,84.97
2022-09-21T01:12:08.061Z,84.97
2022-09-21T01:13:08.072Z,85.49
2022-09-21T01:14:08.110Z,85.97
2022-09-21T01:15:08.117Z,86.07
2022-09-21T01:16:08.152Z,86.07
2022-09-21T01:17:08.109Z,85.97
2022-09-21T01:18:08.120Z,86.63
2022-09-21T01:19:08.235Z,87.11
2022-09-21T01:20:08.141Z,87.20
2022-09-21T01:21:08.153Z,87.11
2022-09-21T01:22:08.161Z,87.68
2022-09-21T01:23:08.171Z,88.15
2022-09-21T01:24:08.184Z,89.10
2022-09-21T01:25:08.191Z,88.53
2022-09-21T01:26:08.200Z,88.72
2022-09-21T01:27:08.208Z,89.20
2022-09-21T01:28:08.222Z,89.95
2022-09-21T01:29:08.227Z,89.86
2022-09-21T01:30:08.237Z,89.48
2022-09-21T01:31:08.335Z,88.72
2022-09-21T01:32:08.260Z,87.77
2022-09-21T01:33:08.266Z,87.01
2022-09-21T01:34:08.414Z,86.44
2022-09-21T01:35:08.284Z,85.97
2022-09-21T01:36:08.304Z,85.11
2022-09-21T01:37:08.307Z,84.83
2022-09-21T01:38:08.313Z,84.45
2022-09-21T01:39:08.324Z,85.02
2022-09-21T01:40:08.360Z,84.45
2022-09-21T01:41:08.346Z,84.55
2022-09-21T01:42:08.365Z,84.83
2022-09-21T01:43:08.368Z,84.26
2022-09-21T01:44:08.384Z,84.55
2022-09-21T01:45:08.382Z,84.45
2022-09-21T01:46:08.487Z,84.26
2022-09-21T01:47:08.545Z,84.55
2022-09-21T01:48:08.409Z,84.45
2022-09-21T01:49:08.464Z,84.64
2022-09-21T01:50:08.424Z,84.45
2022-09-21T01:51:08.437Z,84.26
2022-09-21T01:52:08.450Z,83.78
2022-09-21T01:53:08.460Z,83.88
2022-09-21T01:54:08.466Z,83.78
2022-09-21T01:55:08.473Z,84.36
2022-09-21T01:56:08.487Z,84.26
2022-09-21T01:57:08.495Z,84.92
2022-09-21T01:58:08.501Z,84.83
2022-09-21T01:59:08.516Z,84.83
2022-09-21T02:00:08.521Z,84.36
2022-09-21T02:01:08.596Z,84.92
2022-09-21T02:02:08.595Z,84.92
2022-09-21T02:03:08.577Z,84.74
2022-09-21T02:04:08.635Z,84.64
2022-09-21T02:05:08.571Z,84.92
2022-09-21T02:06:08.579Z,84.64
2022-09-21T02:07:08.587Z,84.92
2022-09-21T02:08:08.606Z,84.26
2022-09-21T02:09:08.613Z,84.17
2022-09-21T02:10:08.616Z,84.26
2022-09-21T02:11:08.627Z,84.36
2022-09-21T02:12:08.657Z,84.45
2022-09-21T02:13:08.647Z,84.92
2022-09-21T02:14:08.651Z,84.64
2022-09-21T02:15:08.677Z,85.11
2022-09-21T02:16:08.856Z,85.49
2022-09-21T02:17:08.694Z,85.30
2022-09-21T02:18:08.693Z,85.21
2022-09-21T02:19:08.727Z,86.16
2022-09-21T02:20:08.716Z,86.44
2022-09-21T02:21:08.723Z,86.35
2022-09-21T02:22:08.730Z,87.11
2022-09-21T02:23:08.740Z,87.20
2022-09-21T02:24:08.753Z,87.49
2022-09-21T02:25:08.760Z,87.96
2022-09-21T02:26:08.842Z,89.00
2022-09-21T02:27:08.780Z,89.00
2022-09-21T02:28:08.789Z,89.20
2022-09-21T02:29:08.802Z,88.62
2022-09-21T02:30:08.805Z,89.00
2022-09-21T02:31:08.854Z,89.00
2022-09-21T02:32:08.823Z,88.91
2022-09-21T02:33:08.841Z,89.00
2022-09-21T02:34:08.853Z,88.81
2022-09-21T02:35:08.878Z,89.39
2022-09-21T02:36:08.866Z,89.29
2022-09-21T02:37:08.875Z,89.10
2022-09-21T02:38:08.884Z,89.10
2022-09-21T02:39:08.898Z,89.39
2022-09-21T02:40:08.941Z,89.58
2022-09-21T02:41:08.914Z,89.48
2022-09-21T02:42:08.921Z,89.67
2022-09-21T02:43:08.929Z,89.29
2022-09-21T02:44:08.941Z,89.00
2022-09-21T02:45:08.949Z,89.00
2022-09-21T02:46:09.019Z,89.00
2022-09-21T02:47:08.968Z,88.81
2022-09-21T02:48:08.978Z,88.72
2022-09-21T02:49:08.986Z,89.20
2022-09-21T02:50:08.998Z,89.00
2022-09-21T02:51:09.028Z,88.62
2022-09-21T02:52:09.027Z,89.10
2022-09-21T02:53:09.026Z,89.00
2022-09-21T02:54:09.035Z,89.20
2022-09-21T02:55:09.042Z,87.01
2022-09-21T02:56:09.053Z,87.01
2022-09-21T02:57:09.066Z,86.63
2022-09-21T02:58:09.073Z,87.20
2022-09-21T02:59:09.082Z,87.58
2022-09-21T03:00:09.092Z,87.11
2022-09-21T03:01:09.144Z,87.49
2022-09-21T03:02:09.181Z,87.39
2022-09-21T03:03:09.117Z,87.30
2022-09-21T03:04:09.131Z,87.11
2022-09-21T03:05:09.137Z,87.20
2022-09-21T03:06:09.159Z,87.49
2022-09-21T03:07:09.181Z,88.15
2022-09-21T03:08:09.174Z,88.15
2022-09-21T03:09:09.180Z,88.24
2022-09-21T03:10:09.189Z,88.72
2022-09-21T03:11:09.196Z,89.58
2022-09-21T03:12:09.204Z,90.05
2022-09-21T03:13:09.212Z,89.95
2022-09-21T03:14:09.221Z,90.52
2022-09-21T03:15:09.232Z,90.62
2022-09-21T03:16:09.278Z,90.71
2022-09-21T03:17:09.251Z,91.00
2022-09-21T03:18:09.263Z,92.04
2022-09-21T03:19:09.267Z,91.56
2022-09-21T03:20:09.283Z,91.61
2022-09-21T03:21:09.289Z,92.14
2022-09-21T03:22:09.355Z,91.85
2022-09-21T03:23:09.386Z,91.00
2022-09-21T03:24:09.312Z,91.38
2022-09-21T03:25:09.328Z,91.38
2022-09-21T03:26:09.335Z,90.71
2022-09-21T03:27:09.353Z,90.95
2022-09-21T03:28:09.351Z,90.52
2022-09-21T03:29:09.360Z,90.19
2022-09-21T03:30:09.369Z,90.57
2022-09-21T03:31:09.436Z,90.29
2022-09-21T03:32:09.387Z,90.29
2022-09-21T03:33:09.400Z,90.48
2022-09-21T03:34:09.407Z,90.10
2022-09-21T03:35:09.419Z,90.00
2022-09-21T03:36:09.425Z,90.10
2022-09-21T03:37:09.533Z,89.81
2022-09-21T03:38:09.440Z,90.10
2022-09-21T03:39:09.525Z,89.91
2022-09-21T03:40:09.523Z,89.06
2022-09-21T03:41:09.468Z,89.62
2022-09-21T03:42:09.483Z,88.96
2022-09-21T03:43:09.489Z,88.87
2022-09-21T03:44:09.499Z,88.58
2022-09-21T03:45:09.510Z,88.96
2022-09-21T03:46:09.608Z,89.20
2022-09-21T03:47:09.530Z,89.25
2022-09-21T03:48:09.538Z,89.43
2022-09-21T03:49:09.558Z,89.62
2022-09-21T03:50:10.328Z,89.25
2022-09-21T03:51:09.563Z,88.68
2022-09-21T03:52:09.581Z,88.58
2022-09-21T03:53:09.579Z,88.29
2022-09-21T03:54:09.585Z,88.10
2022-09-21T03:55:09.706Z,88.39
2022-09-21T03:56:09.626Z,88.58
2022-09-21T03:57:09.615Z,88.01
2022-09-21T03:58:09.629Z,88.01
2022-09-21T03:59:13.920Z,87.96
2022-09-21T04:00:09.644Z,88.01
2022-09-21T04:01:09.836Z,88.10
2022-09-21T04:02:09.662Z,87.73
2022-09-21T04:03:09.673Z,87.73
2022-09-21T04:04:09.682Z,87.45
2022-09-21T04:05:09.688Z,87.68
2022-09-21T04:06:09.700Z,86.97
2022-09-21T04:07:09.703Z,87.01
2022-09-21T04:08:09.715Z,87.30
2022-09-21T04:09:09.730Z,87.11
2022-09-21T04:10:09.729Z,87.30
2022-09-21T04:11:09.852Z,86.78
2022-09-21T04:12:09.752Z,87.20
2022-09-21T04:13:09.774Z,87.06
2022-09-21T04:14:09.771Z,87.73
2022-09-21T04:15:09.780Z,87.16
2022-09-21T04:16:09.898Z,87.16
2022-09-21T04:17:09.798Z,86.97
2022-09-21T04:18:09.808Z,87.25
2022-09-21T04:19:09.818Z,86.97
2022-09-21T04:20:09.824Z,86.68
2022-09-21T04:21:09.835Z,85.93
2022-09-21T04:22:09.846Z,85.83
2022-09-21T04:23:09.863Z,86.11
2022-09-21T04:24:09.863Z,85.64
2022-09-21T04:25:09.877Z,85.74
2022-09-21T04:26:09.876Z,86.21
2022-09-21T04:27:09.964Z,87.16
2022-09-21T04:28:09.895Z,87.45
2022-09-21T04:29:09.908Z,88.01
2022-09-21T04:30:09.924Z,88.29
2022-09-21T04:31:10.038Z,88.48
2022-09-21T04:32:09.931Z,87.73
2022-09-21T04:33:09.941Z,87.35
2022-09-21T04:34:09.950Z,87.06
2022-09-21T04:35:09.959Z,86.78
2022-09-21T04:36:09.966Z,86.78
2022-09-21T04:37:09.981Z,85.93
2022-09-21T04:38:09.991Z,86.11
2022-09-21T04:39:09.993Z,85.17
2022-09-21T04:40:10.138Z,85.45
2022-09-21T04:41:10.011Z,85.26
2022-09-21T04:42:10.023Z,85.07
2022-09-21T04:43:10.058Z,85.36
2022-09-21T04:44:10.039Z,85.74
2022-09-21T04:45:10.050Z,86.21
2022-09-21T04:46:10.085Z,86.21
2022-09-21T04:47:10.066Z,85.74
2022-09-21T04:48:10.082Z,85.64
2022-09-21T04:49:10.085Z,85.07
2022-09-21T04:50:10.092Z,84.88
2022-09-21T04:51:10.153Z,85.36
2022-09-21T04:52:10.111Z,85.07
2022-09-21T04:53:10.120Z,85.07
2022-09-21T04:54:10.129Z,84.50
2022-09-21T04:55:10.147Z,84.78
2022-09-21T04:56:10.151Z,84.69
2022-09-21T04:57:10.159Z,84.88
2022-09-21T04:58:10.167Z,84.59
2022-09-21T04:59:10.201Z,84.50
2022-09-21T05:00:10.181Z,84.41
2022-09-21T05:01:10.245Z,84.12
2022-09-21T05:02:10.198Z,83.84
2022-09-21T05:03:10.208Z,84.12
2022-09-21T05:04:10.218Z,84.50
2022-09-21T05:05:10.230Z,84.22
2022-09-21T05:06:10.237Z,84.78
2022-09-21T05:07:10.252Z,84.69
2022-09-21T05:08:10.264Z,85.45
2022-09-21T05:09:10.265Z,85.83
2022-09-21T05:10:10.283Z,86.49
2022-09-21T05:11:10.282Z,86.87
2022-09-21T05:12:10.309Z,87.25
2022-09-21T05:13:10.302Z,87.06
2022-09-21T05:14:10.309Z,87.35
2022-09-21T05:15:10.338Z,87.54
2022-09-21T05:16:10.373Z,88.10
2022-09-21T05:17:10.334Z,87.54
2022-09-21T05:18:10.340Z,88.01
2022-09-21T05:19:10.360Z,87.92
2022-09-21T05:20:10.359Z,88.39
2022-09-21T05:21:10.369Z,88.58
2022-09-21T05:22:10.377Z,88.77
2022-09-21T05:23:14.795Z,88.58
2022-09-21T05:24:10.398Z,88.20
2022-09-21T05:25:10.405Z,88.39
2022-09-21T05:26:10.411Z,88.01
2022-09-21T05:27:10.418Z,88.10
2022-09-21T05:28:10.431Z,88.29
2022-09-21T05:29:10.438Z,87.92
2022-09-21T05:30:10.449Z,87.82
2022-09-21T05:31:17.568Z,87.73
2022-09-21T05:32:10.468Z,87.82
2022-09-21T05:33:10.483Z,87.73
2022-09-21T05:34:10.481Z,88.01
2022-09-21T05:35:10.491Z,88.10
2022-09-21T05:36:10.503Z,87.92
2022-09-21T05:37:10.513Z,88.01
2022-09-21T05:38:10.516Z,87.92
2022-09-21T05:39:10.527Z,87.82
2022-09-21T05:40:10.605Z,87.25
2022-09-21T05:41:10.543Z,86.97
2022-09-21T05:42:10.552Z,86.97
2022-09-21T05:43:10.562Z,87.25
2022-09-21T05:44:10.572Z,86.87
2022-09-21T05:45:10.588Z,87.82
2022-09-21T05:46:10.657Z,88.29
2022-09-21T05:47:10.626Z,87.63
2022-09-21T05:48:10.605Z,87.16
2022-09-21T05:49:10.617Z,86.78
2022-09-21T05:50:10.724Z,86.78
2022-09-21T05:51:10.629Z,86.40
2022-09-21T05:52:10.637Z,85.93
2022-09-21T05:53:10.658Z,86.30
2022-09-21T05:54:10.660Z,85.83
2022-09-21T05:55:10.672Z,85.74
2022-09-21T05:56:10.679Z,85.07
2022-09-21T05:57:10.684Z,85.07
2022-09-21T05:58:10.690Z,84.78
2022-09-21T05:59:10.704Z,84.31
2022-09-21T06:00:10.708Z,84.88
2022-09-21T06:01:10.748Z,86.11
2022-09-21T06:02:10.734Z,86.49
2022-09-21T06:03:15.522Z,86.68
2022-09-21T06:04:10.749Z,85.93
2022-09-21T06:05:10.757Z,86.87
2022-09-21T06:06:10.765Z,87.54
2022-09-21T06:07:10.771Z,87.25
2022-09-21T06:08:10.787Z,86.97
2022-09-21T06:09:10.792Z,87.16
2022-09-21T06:10:10.816Z,87.16
2022-09-21T06:11:10.804Z,86.97
2022-09-21T06:12:10.820Z,87.16
2022-09-21T06:13:10.825Z,87.06
2022-09-21T06:14:10.834Z,86.97
2022-09-21T06:15:10.842Z,87.06
2022-09-21T06:16:10.849Z,86.49
2022-09-21T06:17:10.863Z,86.02
2022-09-21T06:18:15.540Z,85.45
2022-09-21T06:19:10.915Z,85.07
2022-09-21T06:20:10.890Z,84.50
2022-09-21T06:21:10.898Z,84.22
2022-09-21T06:22:10.921Z,84.45
2022-09-21T06:23:10.912Z,84.31
2022-09-21T06:24:10.924Z,84.45
2022-09-21T06:25:10.930Z,84.59
2022-09-21T06:26:10.939Z,84.17
2022-09-21T06:27:10.949Z,84.45
2022-09-21T06:28:10.954Z,84.59
2022-09-21T06:29:10.974Z,84.26
2022-09-21T06:30:10.974Z,84.17
2022-09-21T06:31:11.017Z,84.78
2022-09-21T06:32:10.993Z,84.41
2022-09-21T06:33:11.004Z,84.50
2022-09-21T06:34:11.008Z,84.41
2022-09-21T06:35:11.074Z,84.22
2022-09-21T06:36:11.030Z,84.50
2022-09-21T06:37:11.042Z,84.41
2022-09-21T06:38:11.047Z,84.12
2022-09-21T06:39:11.054Z,83.88
2022-09-21T06:40:11.097Z,83.74
2022-09-21T06:41:11.071Z,83.27
2022-09-21T06:42:11.088Z,82.84
2022-09-21T06:43:11.093Z,82.36
2022-09-21T06:44:11.100Z,82.42
2022-09-21T06:45:11.116Z,82.46
2022-09-21T06:46:11.265Z,82.36
2022-09-21T06:47:11.126Z,82.17
2022-09-21T06:48:11.140Z,82.27
2022-09-21T06:49:11.147Z,82.17
2022-09-21T06:50:11.154Z,82.84
2022-09-21T06:51:11.238Z,84.45
2022-09-21T06:52:11.170Z,84.55
2022-09-21T06:53:11.186Z,83.59
2022-09-21T06:54:11.195Z,83.59
2022-09-21T06:55:11.311Z,83.22
2022-09-21T06:56:11.207Z,83.07
2022-09-21T06:57:11.216Z,82.12
2022-09-21T06:58:11.223Z,81.74
2022-09-21T06:59:11.231Z,81.65
2022-09-21T07:00:11.245Z,81.17
2022-09-21T07:01:11.410Z,80.79
2022-09-21T07:02:11.368Z,80.03
2022-09-21T07:03:11.268Z,79.46
2022-09-21T07:04:11.283Z,79.94
2022-09-21T07:05:11.287Z,79.97
2022-09-21T07:06:11.297Z,79.12
2022-09-21T07:07:11.336Z,78.27
2022-09-21T07:10:14.735Z,77.22
2022-09-21T07:11:11.346Z,76.56
2022-09-21T07:12:11.352Z,75.99
2022-09-21T07:13:11.367Z,76.84
2022-09-21T07:14:11.377Z,77.70
2022-09-21T07:15:11.379Z,77.70
2022-09-21T07:16:11.464Z,77.22
2022-09-21T07:17:15.650Z,77.22
2022-09-21T07:18:11.409Z,78.17
2022-09-21T07:19:12.107Z,77.89
2022-09-21T07:20:11.429Z,78.27
2022-09-21T07:21:11.447Z,77.70
2022-09-21T07:22:11.451Z,78.74
2022-09-21T07:23:11.547Z,77.98
2022-09-21T07:24:12.615Z,76.37
2022-09-21T07:25:11.476Z,76.27
2022-09-21T07:26:11.481Z,75.32
2022-09-21T07:27:11.490Z,74.47
2022-09-21T07:28:11.506Z,74.94
2022-09-21T07:29:11.509Z,74.88
2022-09-21T07:30:11.519Z,74.60
2022-09-21T07:31:11.533Z,74.51
2022-09-21T07:32:11.540Z,74.27
2022-09-21T07:33:11.595Z,75.99
2022-09-21T07:34:11.554Z,78.21
2022-09-21T07:35:11.564Z,80.30
2022-09-21T07:36:11.572Z,78.21
2022-09-21T07:37:11.583Z,77.07
2022-09-21T07:38:11.597Z,75.84
2022-09-21T07:39:11.624Z,75.45
2022-09-21T07:40:11.660Z,76.31
2022-09-21T07:41:11.619Z,77.17
2022-09-21T07:42:11.630Z,78.21
2022-09-21T07:43:11.642Z,78.78
2022-09-21T07:44:11.646Z,78.06
2022-09-21T07:45:11.679Z,78.63
2022-09-21T07:46:11.672Z,78.63
2022-09-21T07:47:11.686Z,79.01
2022-09-21T07:48:11.693Z,78.63
2022-09-21T07:49:11.702Z,78.25
2022-09-21T07:50:11.709Z,77.39
2022-09-21T07:51:11.718Z,76.82
2022-09-21T07:52:11.727Z,78.34
2022-09-21T07:53:11.735Z,79.01
2022-09-21T07:54:11.745Z,78.72
2022-09-21T07:55:11.790Z,79.39
2022-09-21T07:56:11.764Z,79.77
2022-09-21T07:57:11.772Z,78.53
2022-09-21T07:58:11.783Z,77.30
2022-09-21T07:59:11.794Z,77.77
2022-09-21T08:00:11.812Z,77.01
2022-09-21T08:01:11.871Z,78.34
2022-09-21T08:02:11.864Z,79.11
2022-09-21T08:03:11.839Z,77.58
2022-09-21T08:04:11.844Z,77.49
2022-09-21T08:05:11.850Z,77.68
2022-09-21T08:06:11.862Z,78.06
2022-09-21T08:07:11.869Z,77.87
2022-09-21T08:08:11.885Z,78.25
2022-09-21T08:09:11.891Z,78.25
2022-09-21T08:10:11.903Z,76.82
2022-09-21T08:11:11.934Z,76.57
2022-09-21T08:12:11.917Z,76.35
2022-09-21T08:13:11.932Z,76.92
2022-09-21T08:14:11.984Z,76.92
2022-09-21T08:15:30.729Z,77.01
2022-09-21T08:16:12.046Z,76.67
2022-09-21T08:17:12.071Z,76.96
2022-09-21T08:18:11.980Z,76.96
2022-09-21T08:19:11.990Z,76.20
2022-09-21T08:20:12.000Z,76.33
2022-09-21T08:21:12.290Z,75.76
2022-09-21T08:22:12.025Z,74.99
2022-09-21T08:23:12.033Z,74.43
2022-09-21T08:24:12.042Z,74.24
2022-09-21T08:25:12.052Z,74.33
2022-09-21T08:26:12.060Z,74.39
2022-09-21T08:27:12.214Z,74.29
2022-09-21T08:28:12.081Z,76.20
2022-09-21T08:29:12.092Z,75.34
2022-09-21T08:30:12.102Z,74.96
2022-09-21T08:31:12.177Z,76.61
2022-09-21T08:32:23.001Z,76.90
2022-09-21T08:33:12.134Z,75.38
2022-09-21T08:34:12.142Z,74.43
2022-09-21T08:35:12.152Z,73.38
2022-09-21T08:36:12.165Z,74.14
2022-09-21T08:37:12.178Z,74.71
2022-09-21T08:38:12.186Z,74.24
2022-09-21T08:39:12.199Z,74.24
2022-09-21T08:40:12.274Z,74.24
2022-09-21T08:41:12.216Z,75.09
2022-09-21T08:42:12.226Z,74.80
2022-09-21T08:43:12.260Z,74.43
2022-09-21T08:44:12.256Z,74.90
2022-09-21T08:45:12.258Z,75.42
2022-09-21T08:46:12.312Z,74.12
2022-09-21T08:47:12.278Z,73.07
2022-09-21T08:48:12.337Z,72.08
2022-09-21T08:49:12.302Z,71.70
2022-09-21T08:50:12.313Z,71.83
2022-09-21T08:51:12.320Z,71.64
2022-09-21T08:52:15.479Z,71.70
2022-09-21T08:53:12.347Z,71.70
2022-09-21T08:54:12.360Z,71.93
2022-09-21T08:55:17.373Z,71.39
2022-09-21T08:56:12.377Z,70.15
2022-09-21T08:57:12.386Z,69.64
2022-09-21T08:58:12.416Z,70.69
2022-09-21T08:59:12.434Z,70.97
2022-09-21T09:00:12.423Z,72.02
2022-09-21T09:01:12.525Z,71.93
2022-09-21T09:02:12.489Z,71.26
2022-09-21T09:03:12.451Z,70.69
2022-09-21T09:04:12.469Z,70.12
2022-09-21T09:05:12.484Z,70.94
2022-09-21T09:06:12.492Z,71.32
2022-09-21T09:07:12.501Z,70.94
2022-09-21T09:08:12.513Z,71.32
2022-09-21T09:09:12.524Z,71.32
2022-09-21T09:10:12.534Z,72.50
2022-09-21T09:11:12.547Z,71.36
2022-09-21T09:12:12.558Z,69.74
2022-09-21T09:13:12.567Z,68.69
2022-09-21T09:14:12.580Z,70.40
2022-09-21T09:15:12.614Z,69.45
2022-09-21T09:16:12.699Z,69.99
2022-09-21T09:17:12.616Z,70.65
2022-09-21T09:18:12.624Z,72.21
2022-09-21T09:19:12.638Z,71.83
2022-09-21T09:20:12.649Z,70.40
2022-09-21T09:21:13.925Z,71.20
2022-09-21T09:22:12.678Z,70.25
2022-09-21T09:23:12.684Z,69.93
2022-09-21T09:24:12.692Z,69.54
2022-09-21T09:25:12.706Z,69.51
2022-09-21T09:26:12.717Z,70.65
2022-09-21T09:27:12.727Z,70.69
2022-09-21T09:28:12.740Z,70.72
2022-09-21T09:29:12.756Z,69.20
2022-09-21T09:30:12.764Z,68.63
2022-09-21T09:31:12.873Z,67.16
2022-09-21T09:32:12.791Z,68.53
2022-09-21T09:33:12.800Z,68.57
2022-09-21T09:34:12.816Z,68.57
2022-09-21T09:35:12.829Z,67.61
2022-09-21T09:36:12.838Z,67.55
2022-09-21T09:37:12.861Z,66.69
2022-09-21T09:38:12.867Z,65.07
2022-09-21T09:39:12.893Z,65.64
2022-09-21T09:40:12.969Z,65.01
2022-09-21T09:41:12.901Z,63.83
2022-09-21T09:42:12.909Z,64.21
2022-09-21T09:43:12.923Z,64.12
2022-09-21T09:44:12.945Z,63.83
2022-09-21T09:45:12.949Z,63.32
2022-09-21T09:46:13.643Z,65.07
2022-09-21T09:47:13.052Z,64.47
2022-09-21T09:48:12.983Z,64.81
2022-09-21T09:49:12.997Z,65.67
2022-09-21T09:50:13.008Z,66.66
2022-09-21T09:51:13.021Z,66.66
2022-09-21T09:52:13.033Z,65.04
2022-09-21T09:53:13.051Z,63.99
2022-09-21T09:54:13.065Z,63.70
2022-09-21T09:55:13.076Z,64.69
2022-09-21T09:56:13.089Z,64.12
2022-09-21T09:57:13.097Z,63.26
2022-09-21T09:58:13.110Z,62.84
2022-09-21T09:59:13.124Z,63.35
2022-09-21T10:00:13.141Z,64.09
2022-09-21T10:01:13.164Z,64.59
2022-09-21T10:02:13.254Z,63.35
2022-09-21T10:03:13.201Z,63.29
2022-09-21T10:04:13.256Z,61.73
2022-09-21T10:05:13.199Z,63.04
2022-09-21T10:06:13.213Z,64.18
2022-09-21T10:07:13.237Z,63.80
2022-09-21T10:08:13.241Z,63.16
2022-09-21T10:09:13.257Z,63.45
2022-09-21T10:10:13.266Z,62.97
2022-09-21T10:11:13.282Z,63.13
2022-09-21T10:12:13.301Z,64.40
2022-09-21T10:13:13.315Z,63.16
2022-09-21T10:14:13.328Z,62.65
2022-09-21T10:15:13.334Z,63.07
2022-09-21T10:16:13.413Z,62.88
2022-09-21T10:17:13.357Z,62.18
2022-09-21T10:18:13.380Z,63.54
2022-09-21T10:19:13.409Z,63.45
2022-09-21T10:20:13.401Z,63.07
2022-09-21T10:21:13.414Z,63.00
2022-09-21T10:22:13.426Z,61.41
2022-09-21T10:23:13.444Z,61.60
2022-09-21T10:24:13.452Z,61.03
2022-09-21T10:25:13.466Z,60.64
2022-09-21T10:26:13.477Z,60.55
2022-09-21T10:27:13.499Z,60.71
2022-09-21T10:28:13.501Z,60.58
2022-09-21T10:29:13.533Z,61.83
2022-09-21T10:30:13.537Z,62.02
2022-09-21T10:31:13.671Z,62.78
2022-09-21T10:32:14.784Z,63.86
2022-09-21T10:33:13.573Z,62.08
2022-09-21T10:34:13.592Z,61.19
2022-09-21T10:35:13.627Z,61.41
2022-09-21T10:36:13.610Z,61.32
2022-09-21T10:37:13.635Z,61.32
2022-09-21T10:38:16.265Z,59.47
2022-09-21T10:39:13.655Z,59.53
2022-09-21T10:40:13.739Z,61.10
2022-09-21T10:41:13.679Z,62.05
2022-09-21T10:42:13.695Z,60.64
2022-09-21T10:43:13.710Z,59.88
2022-09-21T10:44:13.725Z,59.78
2022-09-21T10:45:13.739Z,60.01
2022-09-21T10:46:13.819Z,59.50
2022-09-21T10:47:16.620Z,59.31
2022-09-21T10:48:13.780Z,60.11
2022-09-21T10:49:13.804Z,61.19
2022-09-21T10:50:13.816Z,60.93
2022-09-21T10:51:13.862Z,59.72
2022-09-21T10:52:13.831Z,59.75
2022-09-21T10:53:13.849Z,57.04
2022-09-21T10:54:13.860Z,58.58
2022-09-21T10:55:13.878Z,60.07
2022-09-21T10:56:16.424Z,59.24
2022-09-21T10:57:13.914Z,59.44
2022-09-21T10:58:13.917Z,58.41
2022-09-21T10:59:13.928Z,57.46
2022-09-21T11:00:13.944Z,56.82
2022-09-21T11:01:14.080Z,57.90
2022-09-21T11:02:14.032Z,57.04
2022-09-21T11:03:13.984Z,57.46
2022-09-21T11:04:14.001Z,56.57
2022-09-21T11:05:14.017Z,56.38
2022-09-21T11:06:14.027Z,56.67
2022-09-21T11:07:14.073Z,55.93
2022-09-21T11:08:14.061Z,56.21
2022-09-21T11:09:14.078Z,56.43
2022-09-21T11:10:14.091Z,55.67
2022-09-21T11:11:14.099Z,54.71
2022-09-21T11:12:14.115Z,53.89
2022-09-21T11:13:14.130Z,55.64
2022-09-21T11:14:14.140Z,56.82
2022-09-21T11:15:14.157Z,55.98
2022-09-21T11:16:14.274Z,53.20
2022-09-21T11:17:14.184Z,52.63
2022-09-21T11:18:14.198Z,53.02
2022-09-21T11:19:14.215Z,52.83
2022-09-21T11:20:14.226Z,53.66
2022-09-21T11:21:14.244Z,54.59
2022-09-21T11:22:14.258Z,54.78
2022-09-21T11:23:14.304Z,55.74
2022-09-21T11:24:14.286Z,54.97
2022-09-21T11:25:14.304Z,54.68
2022-09-21T11:26:14.316Z,56.12
2022-09-21T11:27:14.384Z,56.43
2022-09-21T11:28:14.350Z,56.82
2022-09-21T11:29:14.379Z,54.52
2022-09-21T11:30:14.384Z,53.85
2022-09-21T11:31:14.554Z,54.43
2022-09-21T11:32:14.412Z,54.23
2022-09-21T11:33:14.426Z,55.53
2022-09-21T11:34:14.438Z,53.28
2022-09-21T11:35:14.454Z,54.43
2022-09-21T11:36:14.472Z,53.94
2022-09-21T11:37:14.487Z,54.23
2022-09-21T11:38:14.498Z,53.94
2022-09-21T11:39:14.541Z,55.51
2022-09-21T11:40:14.575Z,53.59
2022-09-21T11:41:14.546Z,52.73
2022-09-21T11:42:14.564Z,52.15
2022-09-21T11:43:14.579Z,52.56
2022-09-21T11:44:18.475Z,52.30
2022-09-21T11:45:14.611Z,51.25
2022-09-21T11:46:14.663Z,50.15
2022-09-21T11:47:14.642Z,52.37
2022-09-21T11:48:14.653Z,52.28
2022-09-21T11:49:14.674Z,51.68
2022-09-21T11:50:29.838Z,51.79
2022-09-21T11:51:14.706Z,51.61
2022-09-21T11:52:14.819Z,50.36
2022-09-21T11:53:14.737Z,50.29
2022-09-21T11:54:14.751Z,50.20
2022-09-21T11:55:14.795Z,49.24
2022-09-21T11:56:14.785Z,48.40
2022-09-21T11:57:14.799Z,47.61
2022-09-21T11:58:14.821Z,48.28
2022-09-21T11:59:14.853Z,47.73
2022-09-21T12:00:14.850Z,48.13
2022-09-21T12:01:14.868Z,45.16
2022-09-21T12:02:15.066Z,44.56
2022-09-21T12:03:14.897Z,43.24
2022-09-21T12:04:14.909Z,45.83
2022-09-21T12:05:14.933Z,46.53
2022-09-21T12:06:14.948Z,43.07
2022-09-21T12:07:14.963Z,43.46
2022-09-21T12:08:14.986Z,45.11
2022-09-21T12:09:14.994Z,44.54
2022-09-21T12:10:15.076Z,44.80
2022-09-21T12:11:15.051Z,44.90
2022-09-21T12:12:15.052Z,42.69
2022-09-21T12:13:15.064Z,42.50
2022-09-21T12:14:15.086Z,43.84
2022-09-21T12:15:15.152Z,45.95
2022-09-21T12:16:15.164Z,45.01
2022-09-21T12:17:15.133Z,44.65
2022-09-21T12:18:15.145Z,43.88
2022-09-21T12:19:15.164Z,41.96
2022-09-21T12:20:15.206Z,40.52
2022-09-21T12:21:15.199Z,41.58
2022-09-21T12:22:15.218Z,42.43
2022-09-21T12:23:15.232Z,42.61
2022-09-21T12:24:15.352Z,41.08
2022-09-21T12:25:15.267Z,39.85
2022-09-21T12:26:15.288Z,39.45
2022-09-21T12:27:15.327Z,41.56
2022-09-21T12:28:15.328Z,41.75
2022-09-21T12:29:15.344Z,42.30
2022-09-21T12:30:15.444Z,42.61
2022-09-21T12:31:15.425Z,42.33
2022-09-21T12:32:15.399Z,42.40
2022-09-21T12:33:15.409Z,41.60
2022-09-21T12:34:15.436Z,42.57
2022-09-21T12:35:15.444Z,42.17
2022-09-21T12:36:15.467Z,42.53
2022-09-21T12:37:15.486Z,43.41
2022-09-21T12:38:15.500Z,44.18
2022-09-21T12:39:15.521Z,45.47
2022-09-21T12:40:15.731Z,42.38
2022-09-21T12:41:15.553Z,42.88
2022-09-21T12:42:15.573Z,41.83
2022-09-21T12:43:15.613Z,41.46
2022-09-21T12:44:15.610Z,41.94
2022-09-21T12:45:15.637Z,41.08
2022-09-21T12:46:15.670Z,40.70
2022-09-21T12:47:15.660Z,40.89
2022-09-21T12:48:15.677Z,40.81
2022-09-21T12:49:15.702Z,40.02
2022-09-21T12:50:15.711Z,40.91
2022-09-21T12:51:15.731Z,39.93
2022-09-21T12:52:15.756Z,40.02
2022-09-21T12:53:15.766Z,38.89
2022-09-21T12:54:15.784Z,39.87